Monday, September 22, 2014, 6:14 PM EDT

KLKU, Louisa, Louisa County Airport/freeman Field

Location: Louisa, VA, United States Lat: 38.01
Local Time: 6:14 PM EDT (22:14 GMT) Lon: -77.97
Time Zone: US/Eastern Elev: 492 ft

Show me the last for .
Show Decoded

2014-09-22 17:35 METAR KLKU 222135Z AUTO 36004KT 10SM CLR 22/08 A3006 RMK AO2 =
2014-09-22 17:15 METAR KLKU 222115Z AUTO 36004KT 10SM CLR 23/08 A3005 RMK AO2 =
2014-09-22 16:55 METAR KLKU 222055Z AUTO 02005KT 10SM CLR 24/08 A3004 RMK AO2 =
2014-09-22 16:35 METAR KLKU 222035Z AUTO 36006KT 10SM CLR 24/08 A3004 RMK AO2 =
2014-09-22 16:15 METAR KLKU 222015Z AUTO 02005KT 10SM CLR 24/08 A3003 RMK AO2 =
2014-09-22 15:55 METAR KLKU 221955Z AUTO 35004KT 10SM CLR 24/08 A3002 RMK AO2 =
2014-09-22 15:35 METAR KLKU 221935Z AUTO 32007KT 10SM CLR 24/08 A3002 RMK AO2 =
2014-09-22 15:15 METAR KLKU 221915Z AUTO 36009KT 300V010 10SM CLR 24/08 A3002 RMK AO2 =
2014-09-22 14:55 METAR KLKU 221855Z AUTO 30009KT 10SM CLR 24/08 A3003 RMK AO2 =
2014-09-22 14:35 METAR KLKU 221835Z AUTO 33008KT 10SM CLR 24/08 A3003 RMK AO2 =
2014-09-22 14:15 METAR KLKU 221815Z AUTO 33010KT 290V350 10SM CLR 24/08 A3003 RMK AO2 =
2014-09-22 13:55 METAR KLKU 221755Z AUTO 32006KT 10SM CLR 24/08 A3003 RMK AO2 =
2014-09-22 13:35 METAR KLKU 221735Z AUTO 32007KT 290V000 10SM CLR 23/08 A3003 RMK AO2 =
2014-09-22 13:15 METAR KLKU 221715Z AUTO 33007G16KT 290V350 10SM CLR 23/08 A3004 RMK AO2 =
2014-09-22 12:55 METAR KLKU 221655Z AUTO 29011G15KT 10SM CLR 23/08 A3004 RMK AO2 =
2014-09-22 12:35 METAR KLKU 221635Z AUTO 33011G15KT 10SM CLR 23/09 A3004 RMK AO2 =
2014-09-22 12:15 METAR KLKU 221615Z AUTO 34012G17KT 10SM CLR 23/09 A3004 RMK AO2 =
2014-09-22 11:55 METAR KLKU 221555Z AUTO 32007G15KT 10SM CLR 23/09 A3004 RMK AO2 =
2014-09-22 11:35 METAR KLKU 221535Z AUTO 29009G16KT 10SM CLR 22/09 A3005 RMK AO2 =
2014-09-22 11:15 METAR KLKU 221515Z AUTO 31010KT 10SM SCT047 22/09 A3004 RMK AO2 =
2014-09-22 10:55 METAR KLKU 221455Z AUTO 30008KT 10SM BKN047 22/10 A3004 RMK AO2 =
2014-09-22 10:35 METAR KLKU 221435Z AUTO 30009G16KT 10SM CLR 22/09 A3003 RMK AO2 =
2014-09-22 10:15 METAR KLKU 221415Z AUTO 33008G15KT 10SM CLR 21/09 A3002 RMK AO2 =
2014-09-22 09:55 METAR KLKU 221355Z AUTO 31009KT 10SM CLR 21/09 A3001 RMK AO2 =
2014-09-22 09:35 METAR KLKU 221335Z AUTO 32009KT 10SM CLR 21/09 A3001 RMK AO2 =
2014-09-22 09:15 METAR KLKU 221315Z AUTO 32007KT 10SM CLR 21/09 A3000 RMK AO2 =
2014-09-22 08:55 METAR KLKU 221255Z AUTO 25003KT 10SM CLR 18/11 A2999 RMK AO2 =
2014-09-22 08:15 METAR KLKU 221215Z AUTO 27003KT 10SM CLR 17/10 A2998 RMK AO2 =
2014-09-22 07:35 METAR KLKU 221135Z AUTO 27003KT 10SM CLR 14/09 A2996 RMK AO2 =
2014-09-22 07:15 METAR KLKU 221115Z AUTO 27003KT 10SM CLR 13/09 A2995 RMK AO2 =
2014-09-22 06:55 METAR KLKU 221055Z AUTO 28004KT 10SM CLR 14/09 A2994 RMK AO2 =
2014-09-22 06:35 METAR KLKU 221035Z AUTO 00000KT 10SM CLR 15/09 A2994 RMK AO2 =
2014-09-22 06:15 METAR KLKU 221015Z AUTO 27004KT 10SM CLR 16/09 A2993 RMK AO2 =
2014-09-22 05:55 METAR KLKU 220955Z AUTO 32003KT 10SM CLR 17/09 A2992 RMK AO2 =
2014-09-22 05:35 METAR KLKU 220935Z AUTO 29008KT 10SM CLR 16/09 A2990 RMK AO2 =
2014-09-22 05:15 METAR KLKU 220915Z AUTO 28006KT 10SM CLR 16/09 A2990 RMK AO2 =
2014-09-22 04:55 METAR KLKU 220855Z AUTO 27004KT 10SM CLR 16/09 A2989 RMK AO2 =
2014-09-22 04:35 METAR KLKU 220835Z AUTO 28006KT 10SM CLR 17/09 A2988 RMK AO2 =
2014-09-22 04:15 METAR KLKU 220815Z AUTO 00000KT 10SM CLR 15/09 A2987 RMK AO2 =
2014-09-22 03:55 METAR KLKU 220755Z AUTO 23003KT 10SM CLR 17/09 A2986 RMK AO2 =
2014-09-22 03:35 METAR KLKU 220735Z AUTO 00000KT 10SM CLR 18/09 A2985 RMK AO2 =
2014-09-22 03:15 METAR KLKU 220715Z AUTO 25004KT 10SM CLR 20/08 A2985 RMK AO2 =
2014-09-22 02:55 METAR KLKU 220655Z AUTO 26006KT 10SM CLR 20/09 A2985 RMK AO2 =
2014-09-22 02:35 METAR KLKU 220635Z AUTO 28008G14KT 10SM SCT120 21/08 A2984 RMK AO2 =
2014-09-22 02:15 METAR KLKU 220615Z AUTO 29013G17KT 10SM SCT120 21/09 A2984 RMK AO2 =
2014-09-22 01:55 METAR KLKU 220555Z AUTO 30009KT 10SM CLR 22/09 A2983 RMK AO2 =
2014-09-22 01:35 METAR KLKU 220535Z AUTO 29008KT 10SM CLR 22/11 A2982 RMK AO2 =
2014-09-22 01:15 METAR KLKU 220515Z AUTO 29008KT 10SM CLR 22/13 A2982 RMK AO2 =
2014-09-22 00:55 METAR KLKU 220455Z AUTO 29007KT 10SM SCT110 22/15 A2980 RMK AO2 =
2014-09-22 00:35 METAR KLKU 220435Z AUTO 27006KT 10SM BKN110 23/16 A2980 RMK AO2 =
2014-09-22 00:15 METAR KLKU 220415Z AUTO 26005KT 10SM OVC110 23/16 A2979 RMK AO2 =
2014-09-21 23:55 METAR KLKU 220355Z AUTO 25004KT 10SM OVC110 23/16 A2978 RMK AO2 =
2014-09-21 23:35 METAR KLKU 220335Z AUTO 25004KT 10SM SCT075 OVC110 23/17 A2978 RMK AO2 =
2014-09-21 23:15 METAR KLKU 220315Z AUTO 26006KT 10SM SCT075 BKN110 23/17 A2976 RMK AO2 =
2014-09-21 22:55 METAR KLKU 220255Z AUTO 25005KT 10SM BKN075 BKN085 23/18 A2975 RMK AO2 =
2014-09-21 22:35 METAR KLKU 220235Z AUTO 24006KT 10SM SCT095 23/18 A2974 RMK AO2 =
2014-09-21 22:15 METAR KLKU 220215Z AUTO 26007KT 10SM SCT095 23/18 A2974 RMK AO2 =
2014-09-21 21:55 METAR KLKU 220155Z AUTO 26008KT 10SM CLR 24/18 A2973 RMK AO2 =
2014-09-21 21:35 METAR KLKU 220135Z AUTO 25008KT 10SM CLR 24/19 A2973 RMK AO2 =
2014-09-21 21:15 METAR KLKU 220115Z AUTO 26006KT 10SM CLR 24/19 A2972 RMK AO2 =
2014-09-21 20:55 METAR KLKU 220055Z AUTO 25007KT 10SM CLR 24/19 A2972 RMK AO2 =
2014-09-21 20:35 METAR KLKU 220035Z AUTO 25006KT 10SM CLR 25/19 A2971 RMK AO2 =
2014-09-21 20:15 METAR KLKU 220015Z AUTO 24005KT 10SM CLR 26/19 A2970 RMK AO2 =
2014-09-21 19:55 METAR KLKU 212355Z AUTO 23007KT 200V270 10SM CLR 26/18 A2969 RMK AO2 =
2014-09-21 19:35 METAR KLKU 212335Z AUTO 23006KT 10SM CLR 27/18 A2969 RMK AO2 =
2014-09-21 19:15 METAR KLKU 212315Z AUTO 00000KT 10SM CLR 27/18 A2969 RMK AO2 =
2014-09-21 18:55 METAR KLKU 212255Z AUTO 23003KT 10SM CLR 27/18 A2969 RMK AO2 =
2014-09-21 18:35 METAR KLKU 212235Z AUTO 23003KT 10SM CLR 28/18 A2968 RMK AO2 =
2014-09-21 18:15 METAR KLKU 212215Z AUTO 23005KT 10SM SCT070 29/17 A2968 RMK AO2 =

Support USWX by starting your Amazon purchase here.